Coroico, Bolivia
Current Conditions -  °F | °C
As of 3:00 PM on Friday 31 Oct 2014 (Local Time) from SLLP Reporting Station
Broken Clouds Broken Clouds  
Wind Chill: 57°   Ceiling: 20000
Heat Index: 57°   Visibility: 6mi
Dew Point: 30°   Wind: 17mph
Humidity: 36%   Direction: 40°NE
Pressure: 30.5"   Gusts: NA
Location:  16.19°S, 67.72°W
Report Text: SLLP 311900Z 04015KT 9999 SCT017 FEW020CB SCT070 BKN200 14/M01 Q1033
Loading
Personal Weather Stations






























Interactive Weather Map
Tropical Storm Tracking
New forecast layout! Learn more

10-Day Weather Forecast

Advertisements
Track Severe Weather on mobile